Time;durP1;ratioP1;P1;durP2;ratioP2;P2;SDS_P1;SDS_P2;PMS_P1;PMS_P2;Temp;Humidity;BMP_temperature;BMP_pressure;BME280_temperature;BME280_humidity;BME280_pressure;Samples;Min_cycle;Max_cycle;Signal;HPM_P1;HPM_P2
2021/06/26 00:01:51;;;;;;;13.57;10.27;;;;;;;14.53;91.98;99106.84;4992091;28;20069;-69
2021/06/26 00:04:16;;;;;;;15.45;10.43;;;;;;;14.49;92.10;99092.84;4991572;28;20034;-71
2021/06/26 00:06:41;;;;;;;17.25;10.80;;;;;;;14.53;91.81;99088.63;4992852;28;20456;-68
2021/06/26 00:09:07;;;;;;;17.90;9.90;;;;;;;14.69;91.59;99107.13;4991558;28;20488;-69
2021/06/26 00:11:32;;;;;;;11.88;9.00;;;;;;;14.65;91.26;99086.03;4993245;28;20045;-68
2021/06/26 00:13:58;;;;;;;12.07;8.88;;;;;;;14.71;91.22;99095.19;4991575;28;20117;-68
2021/06/26 00:16:23;;;;;;;18.67;9.20;;;;;;;14.67;91.48;99095.66;4992003;28;20030;-69
2021/06/26 00:18:48;;;;;;;14.43;10.20;;;;;;;14.62;91.55;99090.03;4990779;28;20026;-70
2021/06/26 00:21:14;;;;;;;14.57;9.60;;;;;;;14.50;91.30;99071.88;4992128;28;20060;-69
2021/06/26 00:23:39;;;;;;;12.52;9.48;;;;;;;14.60;91.22;99099.47;4992741;28;20550;-69
2021/06/26 00:26:05;;;;;;;13.93;9.77;;;;;;;14.59;91.13;99087.75;4991968;28;20033;-69
2021/06/26 00:28:30;;;;;;;13.95;9.75;;;;;;;14.56;90.84;99082.72;4992665;28;20026;-69
2021/06/26 00:30:55;;;;;;;14.27;9.38;;;;;;;14.56;90.81;99081.91;4992718;28;20081;-69
2021/06/26 00:33:21;;;;;;;12.80;9.07;;;;;;;14.48;90.57;99070.19;4992483;28;20477;-70
2021/06/26 00:35:46;;;;;;;16.05;8.45;;;;;;;14.65;89.93;99092.31;4992823;28;20022;-68
2021/06/26 00:38:11;;;;;;;15.50;8.85;;;;;;;14.63;90.05;99088.13;4990993;28;20037;-69
2021/06/26 00:40:37;;;;;;;15.82;9.18;;;;;;;14.67;89.20;99083.91;4990588;28;20026;-69
2021/06/26 00:43:02;;;;;;;13.90;8.77;;;;;;;14.67;88.82;99078.44;4991589;28;20022;-69
2021/06/26 00:45:27;;;;;;;17.52;9.48;;;;;;;14.65;89.33;99086.84;4997715;28;20026;-69
2021/06/26 00:47:53;;;;;;;17.65;8.90;;;;;;;14.64;88.70;99079.72;4984205;28;20030;-68
2021/06/26 00:50:24;;;;;;;11.73;8.57;;;;;;;14.60;89.33;99089.41;4991931;28;20042;-69
2021/06/26 00:52:50;;;;;;;10.93;8.45;;;;;;;14.59;89.42;99079.59;4978829;28;20030;-69
2021/06/26 00:55:16;;;;;;;11.65;8.82;;;;;;;14.56;89.04;99074.56;4990757;28;20540;-69
2021/06/26 00:57:56;;;;;;;11.85;8.88;;;;;;;14.63;89.49;99066.34;4991606;28;20113;-70
2021/06/26 01:00:21;;;;;;;;;;;;;;;14.62;89.24;99062.81;4992499;28;20444;-68
2021/06/26 01:02:47;;;;;;;13.43;8.38;;;;;;;14.56;89.74;99060.13;4992433;28;19914;-69
2021/06/26 01:05:12;;;;;;;11.80;8.32;;;;;;;14.42;89.77;99034.88;4992066;28;20489;-69
2021/06/26 01:07:38;;;;;;;14.60;8.13;;;;;;;14.54;89.57;99063.09;4991617;28;20109;-70
2021/06/26 01:10:06;;;;;;;12.13;8.38;;;;;;;14.56;89.68;99058.22;4988547;28;20066;-68
2021/06/26 01:12:31;;;;;;;13.07;8.70;;;;;;;14.53;89.47;99047.78;4991794;28;20579;-70
2021/06/26 01:14:56;;;;;;;14.55;8.15;;;;;;;14.57;89.59;99059.09;4991883;28;20105;-69
2021/06/26 01:17:22;;;;;;;13.27;7.90;;;;;;;14.56;89.80;99044.63;4992324;28;20066;-68
2021/06/26 01:19:47;;;;;;;13.40;7.95;;;;;;;14.56;89.66;99044.63;4991502;28;20027;-68
2021/06/26 01:22:15;;;;;;;11.48;8.18;;;;;;;14.48;89.47;99028.53;4990538;28;20029;-68
2021/06/26 01:24:41;;;;;;;11.07;8.27;;;;;;;14.52;89.78;99043.38;4991424;28;20030;-69
2021/06/26 01:27:07;;;;;;;11.82;8.23;;;;;;;14.46;89.83;99044.25;4992005;28;20026;-70
2021/06/26 01:29:33;;;;;;;10.95;7.68;;;;;;;14.36;89.89;99028.44;4992273;28;20496;-69
2021/06/26 01:31:58;;;;;;;12.18;8.50;;;;;;;14.45;89.78;99054.31;4990451;28;20485;-70
2021/06/26 01:34:24;;;;;;;15.57;8.25;;;;;;;14.51;89.24;99035.41;4991860;28;20032;-69
2021/06/26 01:36:49;;;;;;;14.18;8.30;;;;;;;14.53;89.23;99044.22;4991983;28;20018;-68
2021/06/26 01:39:16;;;;;;;11.25;7.63;;;;;;;14.63;89.45;99039.94;4991429;28;20034;-71
2021/06/26 01:41:42;;;;;;;12.75;8.68;;;;;;;14.67;89.52;99040.31;4990616;28;20022;-68
2021/06/26 01:44:08;;;;;;;12.75;8.02;;;;;;;14.64;90.18;99041.59;4988381;28;20452;-69
2021/06/26 01:46:33;;;;;;;13.23;8.45;;;;;;;14.66;91.40;99042.22;4988123;28;20113;-68
2021/06/26 01:49:06;;;;;;;14.50;8.35;;;;;;;14.59;89.81;99046.91;4987259;28;20038;-69
2021/06/26 01:51:32;;;;;;;11.43;7.82;;;;;;;14.64;89.79;99044.31;4989167;28;20072;-69
2021/06/26 01:53:58;;;;;;;13.35;8.23;;;;;;;14.62;89.59;99043.75;4989657;28;20563;-70
2021/06/26 01:56:23;;;;;;;13.07;7.47;;;;;;;14.65;89.27;99042.47;4989414;28;20057;-70
2021/06/26 01:58:48;;;;;;;11.15;7.97;;;;;;;14.58;89.14;99020.72;4988891;28;20439;-69
2021/06/26 02:01:14;;;;;;;10.00;7.00;;;;;;;14.60;89.03;99024.06;4990568;28;20026;-69
2021/06/26 02:03:39;;;;;;;23.17;8.25;;;;;;;14.53;88.98;99012.41;4993052;28;20484;-70
2021/06/26 02:06:04;;;;;;;13.45;7.90;;;;;;;14.71;89.06;99035.28;4992403;28;20077;-68
2021/06/26 02:08:32;;;;;;;13.73;8.20;;;;;;;14.73;89.12;99033.16;4992040;28;20125;-69
2021/06/26 02:10:57;;;;;;;12.68;7.97;;;;;;;14.63;89.45;99017.34;4992625;28;20034;-69
2021/06/26 02:13:22;;;;;;;12.68;7.93;;;;;;;14.71;90.15;99027.94;4993032;28;20034;-68
2021/06/26 02:15:48;;;;;;;10.73;8.15;;;;;;;14.71;90.45;99033.38;4992722;28;20412;-69
2021/06/26 02:18:13;;;;;;;13.13;8.32;;;;;;;14.65;89.51;99031.56;4993439;28;20022;-69
2021/06/26 02:20:38;;;;;;;13.25;7.68;;;;;;;14.71;88.74;99038.81;4993433;28;20030;-69
2021/06/26 02:23:03;;;;;;;18.15;8.00;;;;;;;14.67;87.56;99035.72;4992795;28;20029;-68
2021/06/26 02:25:29;;;;;;;16.63;8.38;;;;;;;14.76;87.37;99046.34;4993113;28;20034;-69
2021/06/26 02:27:55;;;;;;;12.98;9.50;;;;;;;14.68;89.49;99040.09;4993222;28;20164;-69
2021/06/26 02:30:21;;;;;;;14.60;8.85;;;;;;;14.77;89.56;99046.09;4993328;28;20027;-69
2021/06/26 02:32:46;;;;;;;18.33;8.98;;;;;;;14.61;90.01;99022.16;4992377;28;20028;-71
2021/06/26 02:35:12;;;;;;;17.15;8.90;;;;;;;14.62;90.64;99035.56;4992102;28;20038;-69
2021/06/26 02:37:39;;;;;;;15.82;9.55;;;;;;;14.75;90.87;99052.81;4991593;28;20054;-71
2021/06/26 02:40:05;;;;;;;17.13;8.98;;;;;;;14.74;90.22;99052.00;4991778;28;20495;-68
2021/06/26 02:42:30;;;;;;;17.10;9.40;;;;;;;14.76;90.06;99057.22;4991839;28;20113;-69
2021/06/26 02:44:55;;;;;;;14.82;8.70;;;;;;;14.78;90.04;99052.41;4991386;28;20037;-69
2021/06/26 02:47:21;;;;;;;20.38;8.77;;;;;;;14.79;90.10;99056.78;4991812;28;20037;-69
2021/06/26 02:49:47;;;;;;;13.40;8.32;;;;;;;14.79;90.49;99043.16;4991485;28;20036;-69
2021/06/26 02:52:12;;;;;;;12.13;8.50;;;;;;;14.79;90.94;99048.59;4991544;28;20641;-69
2021/06/26 02:54:37;;;;;;;13.70;8.55;;;;;;;14.79;91.22;99043.97;4991951;28;20757;-69
2021/06/26 02:57:03;;;;;;;21.90;8.95;;;;;;;14.78;91.28;99050.50;4991532;28;20085;-69
2021/06/26 02:59:28;;;;;;;17.40;9.90;;;;;;;14.78;91.60;99046.94;4991379;28;20037;-69
2021/06/26 03:01:54;;;;;;;15.45;8.90;;;;;;;14.76;91.70;99039.00;4991445;28;20034;-69
2021/06/26 03:04:20;;;;;;;15.35;8.38;;;;;;;14.79;91.00;99015.91;4991813;28;20412;-69
2021/06/26 03:06:45;;;;;;;15.60;9.10;;;;;;;14.81;90.44;99038.31;4991800;28;20030;-70
2021/06/26 03:09:10;;;;;;;13.65;8.77;;;;;;;14.78;90.72;99036.88;4990001;28;20026;-68
2021/06/26 03:11:36;;;;;;;13.82;8.27;;;;;;;14.80;90.66;99033.91;4991016;28;20038;-69
2021/06/26 03:14:01;;;;;;;12.60;8.25;;;;;;;14.82;90.44;99037.25;4990585;28;20045;-70
2021/06/26 03:16:26;;;;;;;19.33;8.75;;;;;;;14.97;90.12;99035.00;4989250;28;20069;-69
2021/06/26 03:18:52;;;;;;;14.27;8.15;;;;;;;14.98;89.63;99039.38;4989449;28;20026;-69
2021/06/26 03:21:17;;;;;;;13.02;8.60;;;;;;;14.80;90.15;99018.44;4990983;28;20030;-68
2021/06/26 03:23:42;;;;;;;17.55;8.93;;;;;;;14.80;90.35;99039.38;5010681;28;20026;-69
2021/06/26 03:26:08;;;;;;;12.93;8.55;;;;;;;14.61;90.72;99024.88;5009939;28;20022;-69
2021/06/26 03:28:34;;;;;;;11.80;8.15;;;;;;;14.66;90.97;99042.22;4989772;28;20489;-69
2021/06/26 03:31:00;;;;;;;20.80;9.30;;;;;;;14.62;91.19;99049.19;4990445;28;20015;-69
2021/06/26 03:33:26;;;;;;;14.23;9.15;;;;;;;14.66;91.40;99047.66;4988940;28;20812;-69
2021/06/26 03:35:52;;;;;;;13.13;8.63;;;;;;;14.62;90.73;99035.56;4990062;28;20030;-69
2021/06/26 03:38:17;;;;;;;13.25;9.68;;;;;;;14.74;91.01;99040.28;4991068;28;20056;-68
2021/06/26 03:40:42;;;;;;;15.68;9.73;;;;;;;14.74;91.21;99035.66;4991413;28;20022;-68
2021/06/26 03:43:07;;;;;;;21.02;10.00;;;;;;;14.76;90.63;99033.53;4990354;28;20032;-68
2021/06/26 03:45:33;;;;;;;15.73;8.77;;;;;;;14.83;90.65;99041.66;4991001;28;20654;-69
2021/06/26 03:47:58;;;;;;;15.45;9.82;;;;;;;14.83;90.77;99042.50;4988724;28;20030;-69
2021/06/26 03:50:23;;;;;;;18.60;9.73;;;;;;;14.84;90.39;99038.69;4984372;28;20034;-68
2021/06/26 03:52:49;;;;;;;14.63;9.55;;;;;;;14.91;90.03;99052.25;4990786;28;20022;-69
2021/06/26 03:55:14;;;;;;;18.95;9.32;;;;;;;14.87;90.39;99046.41;4989924;28;20026;-70
2021/06/26 03:57:39;;;;;;;16.83;9.38;;;;;;;14.92;90.42;99053.91;4990518;28;20136;-68
2021/06/26 04:00:06;;;;;;;16.23;9.25;;;;;;;14.75;90.61;99021.00;4990318;28;20120;-68
2021/06/26 04:02:31;;;;;;;12.25;8.40;;;;;;;14.94;90.40;99045.53;4990600;28;20034;-69
2021/06/26 04:04:57;;;;;;;15.05;8.35;;;;;;;14.97;90.24;99045.91;4990359;28;20552;-70
2021/06/26 04:07:22;;;;;;;16.02;8.30;;;;;;;14.95;90.06;99031.66;4978116;28;20535;-69
2021/06/26 04:09:47;;;;;;;17.58;8.35;;;;;;;15.00;89.81;99040.00;4989554;28;20026;-69
2021/06/26 04:12:13;;;;;;;13.63;8.00;;;;;;;15.08;89.95;99042.41;4971411;28;20035;-68
2021/06/26 04:14:38;;;;;;;14.07;8.10;;;;;;;15.16;89.54;99051.34;4977260;28;20124;-69
2021/06/26 04:17:03;;;;;;;11.63;8.00;;;;;;;15.01;88.99;99013.56;4990102;28;20126;-69
2021/06/26 04:19:29;;;;;;;13.55;8.02;;;;;;;15.33;88.79;99044.25;4988890;28;20481;-70
2021/06/26 04:21:54;;;;;;;9.18;7.28;;;;;;;15.39;87.92;99042.50;4989371;28;20138;-68
2021/06/26 04:24:19;;;;;;;8.30;6.97;;;;;;;15.47;87.72;99032.09;4989174;28;20519;-68
2021/06/26 04:26:45;;;;;;;11.35;7.72;;;;;;;15.71;87.34;99048.59;4990674;28;20037;-69
2021/06/26 04:29:10;;;;;;;10.25;7.13;;;;;;;15.73;86.31;99017.31;4988762;28;20630;-69
2021/06/26 04:31:35;;;;;;;11.13;7.57;;;;;;;16.01;85.02;99048.59;4990096;28;20496;-69
2021/06/26 04:34:01;;;;;;;11.55;7.20;;;;;;;16.09;84.70;99047.44;4989160;28;20431;-69
2021/06/26 04:36:26;;;;;;;14.55;7.78;;;;;;;16.14;84.67;99042.13;4987499;28;20030;-71
2021/06/26 04:38:52;;;;;;;9.30;6.65;;;;;;;16.26;85.17;99037.50;4983121;28;20041;-69
2021/06/26 04:41:17;;;;;;;12.50;6.70;;;;;;;16.30;85.47;99052.34;4986731;28;20026;-68
2021/06/26 04:43:42;;;;;;;12.25;7.47;;;;;;;16.36;85.58;99047.84;4988179;28;20474;-69
2021/06/26 04:46:09;;;;;;;10.73;7.03;;;;;;;16.32;85.78;99047.50;4976666;28;20465;-69
2021/06/26 04:48:36;;;;;;;9.85;6.15;;;;;;;16.31;86.40;99039.53;4986892;28;20027;-69
2021/06/26 04:51:01;;;;;;;14.38;7.72;;;;;;;16.32;86.52;99046.63;4984958;28;20023;-71
2021/06/26 04:53:27;;;;;;;12.77;7.55;;;;;;;16.26;86.30;99031.22;4987876;28;20673;-70
2021/06/26 04:55:52;;;;;;;14.50;8.20;;;;;;;16.33;86.12;99043.69;4988022;28;20080;-69
2021/06/26 04:58:21;;;;;;;12.48;7.88;;;;;;;16.31;85.44;99045.81;4999225;28;20034;-69
2021/06/26 05:00:51;;;;;;;14.45;8.10;;;;;;;16.33;85.21;99048.31;4988745;28;20488;-70
2021/06/26 05:03:21;;;;;;;13.02;8.10;;;;;;;16.30;85.16;99046.91;4987409;28;20457;-70
2021/06/26 05:05:47;;;;;;;14.75;7.85;;;;;;;16.43;85.13;99043.13;4987767;28;20468;-70
2021/06/26 05:08:13;;;;;;;12.15;7.28;;;;;;;16.41;84.28;99037.88;4989105;28;20129;-75
2021/06/26 05:10:38;;;;;;;13.07;8.13;;;;;;;16.36;84.29;99020.53;4988285;28;20110;-69
2021/06/26 05:13:04;;;;;;;12.10;8.13;;;;;;;16.56;84.28;99047.53;4988811;28;20838;-71
2021/06/26 05:15:30;;;;;;;11.80;7.75;;;;;;;16.64;83.36;99049.91;4982756;28;20034;-72
2021/06/26 05:17:55;;;;;;;11.70;8.00;;;;;;;16.74;82.39;99052.03;4973226;28;20030;-71
2021/06/26 05:20:20;;;;;;;10.18;7.32;;;;;;;16.98;80.57;99051.00;4988977;28;20042;-68
2021/06/26 05:22:46;;;;;;;15.05;7.50;;;;;;;17.18;80.66;99060.72;4989103;28;20022;-67
2021/06/26 05:25:12;;;;;;;10.20;7.57;;;;;;;17.19;80.01;99056.94;4988092;28;20034;-67
2021/06/26 05:27:37;;;;;;;8.88;6.45;;;;;;;17.37;78.30;99061.38;4989179;28;20034;-74
2021/06/26 05:30:04;;;;;;;8.20;6.43;;;;;;;17.36;78.05;99033.22;4991013;28;20019;-76
2021/06/26 05:32:29;;;;;;;12.52;6.40;;;;;;;17.59;77.32;99046.00;4989802;28;20037;-68
2021/06/26 05:34:55;;;;;;;10.32;6.18;;;;;;;17.72;76.58;99055.81;4990180;28;20026;-69
2021/06/26 05:37:20;;;;;;;10.18;6.82;;;;;;;17.64;77.31;99034.31;4991746;28;20202;-74
2021/06/26 05:39:46;;;;;;;11.63;6.68;;;;;;;17.99;75.88;99047.88;4989584;28;20029;-74
2021/06/26 05:42:11;;;;;;;9.27;6.93;;;;;;;18.02;76.21;99050.13;4992608;28;20041;-73
2021/06/26 05:44:36;;;;;;;11.75;8.02;;;;;;;18.10;76.47;99040.66;4992967;28;20038;-73
2021/06/26 05:47:02;;;;;;;8.82;6.97;;;;;;;18.38;76.17;99042.53;4992396;28;20030;-69
2021/06/26 05:49:27;;;;;;;12.98;7.32;;;;;;;18.72;75.10;99042.53;4991547;28;20102;-70
2021/06/26 05:51:53;;;;;;;11.75;7.55;;;;;;;18.90;74.18;99034.06;4991951;28;20035;-72
2021/06/26 05:54:18;;;;;;;11.10;7.70;;;;;;;19.02;74.26;99047.66;4993794;28;20038;-72
2021/06/26 05:56:44;;;;;;;13.30;8.07;;;;;;;19.44;73.39;99055.34;4993260;28;20022;-67
2021/06/26 05:59:09;;;;;;;10.07;7.78;;;;;;;19.81;71.89;99065.72;4993256;28;20037;-67
2021/06/26 06:01:35;;;;;;;8.65;6.70;;;;;;;20.27;71.34;99061.50;4992254;28;20050;-67
2021/06/26 06:04:00;;;;;;;10.55;7.50;;;;;;;20.22;68.81;99058.72;4991149;28;20035;-68
2021/06/26 06:06:25;;;;;;;9.95;7.13;;;;;;;20.22;68.47;99052.41;4990606;28;20057;-68
2021/06/26 06:08:50;;;;;;;14.40;7.68;;;;;;;20.18;68.60;99060.34;4991017;28;20065;-68
2021/06/26 06:11:16;;;;;;;13.55;7.78;;;;;;;20.33;68.26;99062.38;4989769;28;20024;-70
2021/06/26 06:13:41;;;;;;;9.55;7.20;;;;;;;20.77;66.95;99030.06;4999108;28;20190;-69
2021/06/26 06:16:07;;;;;;;10.40;6.82;;;;;;;21.04;64.16;99026.41;4991379;28;20037;-68
2021/06/26 06:18:32;;;;;;;12.23;7.15;;;;;;;20.96;64.26;99043.41;4988446;28;20104;-69
2021/06/26 06:20:57;;;;;;;10.55;7.07;;;;;;;21.49;64.25;99052.50;4982666;28;20583;-66
2021/06/26 06:23:23;;;;;;;10.13;6.75;;;;;;;22.02;63.47;99044.13;4983627;28;20101;-67
2021/06/26 06:25:48;;;;;;;10.55;6.03;;;;;;;22.34;62.21;99046.69;4980262;28;20704;-67
2021/06/26 06:28:13;;;;;;;10.52;6.72;;;;;;;22.45;61.69;99042.00;4983792;28;20073;-67
2021/06/26 06:30:39;;;;;;;8.82;5.82;;;;;;;23.00;61.47;99054.13;4985228;28;20018;-68
2021/06/26 06:33:05;;;;;;;8.80;5.30;;;;;;;23.44;61.22;99052.63;4981983;28;20026;-67
2021/06/26 06:35:31;;;;;;;11.05;5.93;;;;;;;23.51;59.40;99058.69;4982303;28;20034;-71
2021/06/26 06:37:56;;;;;;;7.95;5.88;;;;;;;23.67;58.93;99053.91;4987155;28;20110;-67
2021/06/26 06:40:22;;;;;;;8.82;6.03;;;;;;;23.91;56.92;99040.28;4979520;28;20030;-67
2021/06/26 06:42:47;;;;;;;10.70;5.40;;;;;;;24.95;53.88;99055.84;4983268;28;20034;-69
2021/06/26 06:45:13;;;;;;;8.45;5.43;;;;;;;24.91;51.04;99031.47;4988833;28;20061;-69
2021/06/26 06:47:39;;;;;;;7.07;4.93;;;;;;;25.74;50.34;99046.06;4983265;28;20030;-69
2021/06/26 06:50:07;;;;;;;10.32;5.50;;;;;;;25.75;48.66;99033.03;4987608;28;20022;-68
2021/06/26 06:52:32;;;;;;;7.85;5.00;;;;;;;25.48;49.60;99050.28;4984514;28;20034;-68
2021/06/26 06:54:58;;;;;;;8.77;5.07;;;;;;;25.48;49.10;99039.22;4988060;28;20032;-68
2021/06/26 06:57:24;;;;;;;7.85;4.25;;;;;;;25.88;48.90;99054.50;4987633;28;20037;-69
2021/06/26 06:59:51;;;;;;;9.13;5.63;;;;;;;25.98;48.26;99029.41;4983628;28;20121;-68
2021/06/26 07:02:16;;;;;;;9.48;4.65;;;;;;;26.18;47.67;99052.44;4992531;28;20034;-67
2021/06/26 07:04:42;;;;;;;7.50;5.72;;;;;;;25.58;49.67;99048.22;4986934;28;20073;-69
2021/06/26 07:07:07;;;;;;;9.02;5.28;;;;;;;26.32;47.55;99044.97;4992599;28;20037;-63
2021/06/26 07:09:32;;;;;;;8.80;4.93;;;;;;;26.99;47.34;99033.63;4990075;28;20026;-68
2021/06/26 07:11:58;;;;;;;6.78;4.95;;;;;;;27.38;46.19;99045.38;4984859;28;20049;-66
2021/06/26 07:14:24;;;;;;;7.05;4.68;;;;;;;28.69;43.69;99042.75;4985223;28;20473;-66
2021/06/26 07:16:49;;;;;;;5.32;3.95;;;;;;;27.44;45.32;99038.63;4991184;28;20042;-68
2021/06/26 07:19:15;;;;;;;5.55;4.35;;;;;;;26.84;45.74;99020.00;4990158;28;20026;-68
2021/06/26 07:21:40;;;;;;;7.57;4.22;;;;;;;26.18;46.64;99046.88;4989840;28;20022;-67
2021/06/26 07:24:05;;;;;;;4.32;3.92;;;;;;;25.48;48.58;99044.75;4990077;28;20034;-62
2021/06/26 07:26:31;;;;;;;7.57;4.22;;;;;;;25.09;49.04;99027.16;4992617;28;20038;-62
2021/06/26 07:28:56;;;;;;;7.38;4.18;;;;;;;27.13;45.22;99043.91;4989970;28;20484;-65
2021/06/26 07:31:21;;;;;;;7.38;4.35;;;;;;;28.12;42.78;99018.22;4989813;28;20057;-65
2021/06/26 07:33:47;;;;;;;4.80;3.80;;;;;;;29.90;41.14;99031.31;4989269;28;20690;-65
2021/06/26 07:36:12;;;;;;;5.20;3.90;;;;;;;32.99;34.93;99030.09;4989714;28;20061;-65
2021/06/26 07:38:37;;;;;;;16.95;6.25;;;;;;;35.43;31.09;99027.06;4979695;28;20713;-66
2021/06/26 07:41:03;;;;;;;5.85;3.55;;;;;;;35.05;30.45;99026.47;4985444;28;20082;-65
2021/06/26 07:43:28;;;;;;;3.92;3.38;;;;;;;32.86;32.54;99027.28;4981606;28;20624;-66
2021/06/26 07:45:53;;;;;;;7.80;3.15;;;;;;;31.33;34.41;99020.13;4990120;28;20113;-66
2021/06/26 07:48:19;;;;;;;5.07;3.33;;;;;;;31.33;35.42;99008.13;4990345;28;20026;-65
2021/06/26 07:50:50;;;;;;;7.72;3.70;;;;;;;30.65;36.13;99002.44;4990016;28;20026;-65
2021/06/26 07:53:15;;;;;;;6.78;3.65;;;;;;;30.35;37.67;99013.47;4989331;28;20436;-65
2021/06/26 07:55:41;;;;;;;4.22;3.70;;;;;;;30.82;36.93;99012.78;4988167;28;20039;-65
2021/06/26 07:58:06;;;;;;;3.55;3.20;;;;;;;31.78;36.00;99016.81;4985402;28;20041;-66
2021/06/26 08:00:31;;;;;;;7.15;3.75;;;;;;;32.66;34.06;99012.16;4989035;28;20062;-66
2021/06/26 08:02:57;;;;;;;3.95;3.30;;;;;;;33.00;33.63;98990.50;4989358;28;20038;-65
2021/06/26 08:05:22;;;;;;;5.75;3.50;;;;;;;33.42;32.92;99001.56;4990256;28;20118;-65
2021/06/26 08:07:47;;;;;;;4.57;3.00;;;;;;;33.51;33.50;99007.03;4987382;28;20023;-64
2021/06/26 08:10:13;;;;;;;4.97;3.08;;;;;;;33.94;33.48;98991.59;4989247;28;20504;-65
2021/06/26 08:12:38;;;;;;;4.72;3.13;;;;;;;34.25;32.14;98980.50;4988756;28;20069;-65
2021/06/26 08:15:04;;;;;;;4.82;3.08;;;;;;;34.39;30.50;98991.31;4989851;28;20041;-69
2021/06/26 08:17:29;;;;;;;4.45;3.30;;;;;;;32.01;33.61;98985.72;4989185;28;20036;-70
2021/06/26 08:19:54;;;;;;;5.75;3.50;;;;;;;33.64;34.04;98989.03;4991415;28;20468;-66
2021/06/26 08:22:20;;;;;;;4.45;3.08;;;;;;;35.12;30.67;98981.69;4988754;28;20076;-68
2021/06/26 08:24:45;;;;;;;5.13;2.97;;;;;;;35.72;29.94;98975.94;4989500;28;20053;-68
2021/06/26 08:27:10;;;;;;;3.33;2.90;;;;;;;36.62;27.47;98981.47;4989751;28;20500;-68
2021/06/26 08:29:36;;;;;;;5.45;2.90;;;;;;;37.31;28.35;98977.88;4989830;28;20105;-69
2021/06/26 08:32:02;;;;;;;4.32;2.90;;;;;;;36.88;28.57;98984.75;4990853;28;20038;-65
2021/06/26 08:34:28;;;;;;;4.60;3.78;;;;;;;35.32;28.50;98970.53;4990030;28;20038;-66
2021/06/26 08:36:53;;;;;;;4.55;3.40;;;;;;;34.63;30.79;98962.31;4988758;28;20126;-67
2021/06/26 08:39:21;;;;;;;4.45;3.00;;;;;;;32.87;31.15;98972.84;4989160;28;20037;-69
2021/06/26 08:41:48;;;;;;;;;;;;;;;34.59;31.11;98969.84;4984538;28;20123;-67
2021/06/26 08:44:17;;;;;;;4.60;3.20;;;;;;;35.37;30.81;98977.88;4988154;28;20015;-66
2021/06/26 08:46:45;;;;;;;4.60;3.30;;;;;;;33.84;31.86;98970.44;4989316;28;20113;-67
2021/06/26 08:49:11;;;;;;;4.90;3.17;;;;;;;34.00;32.19;98973.31;4991930;28;20025;-66
2021/06/26 08:51:38;;;;;;;3.88;2.72;;;;;;;33.79;32.31;98974.28;4991127;28;20469;-66
2021/06/26 08:54:03;;;;;;;3.30;2.92;;;;;;;33.64;30.84;98965.78;4990351;28;20484;-65
2021/06/26 08:56:29;;;;;;;5.25;3.00;;;;;;;35.59;30.16;98965.97;4999602;28;20046;-67
2021/06/26 08:58:54;;;;;;;4.35;2.95;;;;;;;35.82;28.02;98952.03;4994784;28;20113;-68
2021/06/26 09:01:20;;;;;;;3.53;2.90;;;;;;;35.07;30.50;98967.91;4992726;28;20022;-67
2021/06/26 09:03:45;;;;;;;3.55;3.05;;;;;;;32.53;33.51;98972.06;5005089;28;20089;-71
2021/06/26 09:06:11;;;;;;;3.65;2.95;;;;;;;30.98;37.01;98958.00;5002844;28;20085;-72
2021/06/26 09:08:48;;;;;;;5.47;3.28;;;;;;;29.75;37.42;98964.84;4992574;28;20436;-71
2021/06/26 09:11:18;;;;;;;3.72;3.30;;;;;;;29.09;40.57;98950.09;4992967;28;20033;-69
2021/06/26 09:13:44;;;;;;;3.97;3.50;;;;;;;28.49;38.98;98949.44;5000359;28;20097;-68
2021/06/26 09:16:15;;;;;;;4.07;3.63;;;;;;;28.08;41.08;98969.09;4992196;28;20496;-69
2021/06/26 09:18:46;;;;;;;5.47;3.28;;;;;;;29.96;39.59;98965.03;4993172;28;20030;-68
2021/06/26 09:21:18;;;;;;;4.00;3.53;;;;;;;29.35;41.12;98967.72;4990345;28;20532;-67
2021/06/26 09:23:43;;;;;;;4.15;3.60;;;;;;;29.09;41.19;98969.59;4994617;28;20101;-64
2021/06/26 09:26:11;;;;;;;5.43;3.50;;;;;;;28.75;42.95;98973.84;5002104;28;20030;-65
2021/06/26 09:28:39;;;;;;;5.30;3.53;;;;;;;30.89;38.84;98963.63;4999670;28;20057;-66
2021/06/26 09:31:14;;;;;;;6.05;3.03;;;;;;;35.25;31.98;98959.09;4999420;28;20347;-65
2021/06/26 09:33:39;;;;;;;4.72;3.58;;;;;;;34.98;31.71;98958.81;4996499;28;20034;-66
2021/06/26 09:36:09;;;;;;;3.80;3.25;;;;;;;32.38;35.38;98961.50;4995846;28;20031;-65
2021/06/26 09:38:37;;;;;;;6.75;3.55;;;;;;;31.46;37.38;98956.78;4993659;28;20034;-64
2021/06/26 09:41:14;;;;;;;8.48;5.05;;;;;;;30.98;38.16;98963.56;4992163;28;20141;-66
2021/06/26 09:43:39;;;;;;;4.53;3.75;;;;;;;30.96;38.40;98963.09;4991623;28;20397;-66
2021/06/26 09:46:16;;;;;;;5.25;3.50;;;;;;;30.67;39.39;98964.63;4991666;28;20062;-66
2021/06/26 09:48:59;;;;;;;5.88;3.30;;;;;;;30.14;39.54;98954.69;4992884;28;20534;-66
2021/06/26 09:51:32;;;;;;;6.30;3.78;;;;;;;29.95;39.68;98957.81;4992282;28;20026;-66
2021/06/26 09:54:02;;;;;;;4.90;3.85;;;;;;;30.03;37.31;98953.38;4992902;28;20062;-66
2021/06/26 09:56:38;;;;;;;6.00;4.55;;;;;;;29.49;38.27;98951.66;4992660;28;20029;-65
2021/06/26 09:59:04;;;;;;;4.90;3.97;;;;;;;28.74;40.21;98949.91;4992796;28;20420;-65
2021/06/26 10:01:31;;;;;;;5.13;3.95;;;;;;;29.03;39.90;98922.34;4991598;28;20400;-66
2021/06/26 10:03:57;;;;;;;6.43;3.80;;;;;;;28.98;41.18;98953.13;4992087;28;20504;-65
2021/06/26 10:06:24;;;;;;;7.40;4.70;;;;;;;29.70;39.54;98945.50;4982974;28;20085;-66
2021/06/26 10:08:49;;;;;;;5.25;3.90;;;;;;;31.14;36.62;98930.31;4973843;28;20035;-65
2021/06/26 10:11:15;;;;;;;4.28;3.63;;;;;;;32.14;37.27;98934.22;4991691;28;20038;-66
2021/06/26 10:13:41;;;;;;;4.45;4.05;;;;;;;31.22;37.45;98935.84;4981989;28;20038;-67
2021/06/26 10:16:07;;;;;;;7.28;4.07;;;;;;;29.81;40.10;98916.13;4972597;28;20064;-66
2021/06/26 10:18:34;;;;;;;3.78;3.33;;;;;;;29.71;40.28;98922.03;4988862;28;20053;-66
2021/06/26 10:21:02;;;;;;;7.50;3.80;;;;;;;29.02;42.29;98920.69;4991883;28;20026;-66
2021/06/26 10:23:33;;;;;;;8.63;3.65;;;;;;;31.28;38.26;98922.47;4991085;28;20026;-67
2021/06/26 10:25:59;;;;;;;5.43;3.58;;;;;;;33.49;34.21;98914.81;4990092;28;20707;-67
2021/06/26 10:28:25;;;;;;;4.18;3.78;;;;;;;32.79;35.79;98908.53;4991623;28;20393;-67
2021/06/26 10:31:11;;;;;;;5.43;3.80;;;;;;;32.64;33.43;98918.41;4991463;28;20019;-67
2021/06/26 10:33:38;;;;;;;4.00;3.60;;;;;;;32.30;33.24;98915.63;4990631;28;20049;-68
2021/06/26 10:36:03;;;;;;;5.70;3.45;;;;;;;33.41;32.76;98907.38;4989038;28;20041;-67
2021/06/26 10:38:45;;;;;;;3.58;3.15;;;;;;;34.01;31.37;98901.97;4988894;28;20045;-67
2021/06/26 10:41:18;;;;;;;5.10;3.88;;;;;;;33.09;30.68;98895.94;4981404;28;20026;-66
2021/06/26 10:43:58;;;;;;;4.50;4.10;;;;;;;31.80;34.83;98910.13;4991454;28;20027;-66
2021/06/26 10:46:23;;;;;;;4.72;3.40;;;;;;;32.75;34.77;98905.59;4990218;28;20496;-66
2021/06/26 10:49:01;;;;;;;4.97;3.78;;;;;;;33.08;34.42;98904.69;4992395;28;20079;-66
2021/06/26 10:51:40;;;;;;;4.13;3.72;;;;;;;31.61;33.73;98900.25;4990634;28;20494;-66
2021/06/26 10:54:11;;;;;;;4.10;3.70;;;;;;;30.81;36.10;98903.00;4989649;28;20042;-66
2021/06/26 10:56:37;;;;;;;4.80;3.92;;;;;;;29.99;39.49;98891.84;4991109;28;20034;-66
2021/06/26 10:59:10;;;;;;;5.43;3.80;;;;;;;29.61;39.85;98886.09;4999397;28;20496;-66
2021/06/26 11:01:35;;;;;;;3.80;3.47;;;;;;;29.30;40.35;98891.81;4993477;28;20034;-67
2021/06/26 11:04:06;;;;;;;7.90;3.28;;;;;;;30.01;39.25;98900.69;4990196;28;20473;-66
2021/06/26 11:06:31;;;;;;;5.30;3.92;;;;;;;29.39;39.52;98887.84;4989808;28;20030;-65
2021/06/26 11:09:04;;;;;;;4.45;4.03;;;;;;;28.61;40.97;98905.16;4990826;28;20770;-65
2021/06/26 11:11:40;;;;;;;5.57;4.82;;;;;;;27.74;42.31;98898.94;4990070;28;20062;-67
2021/06/26 11:14:24;;;;;;;4.68;4.03;;;;;;;27.23;43.05;98889.00;4989037;28;20034;-67
2021/06/26 11:16:50;;;;;;;5.32;4.75;;;;;;;27.66;41.85;98890.53;4988183;28;20096;-67
2021/06/26 11:19:16;;;;;;;4.95;4.45;;;;;;;28.06;41.69;98904.59;4989348;28;20072;-67
2021/06/26 11:21:48;;;;;;;7.05;4.63;;;;;;;29.08;41.01;98899.09;4989581;28;20057;-67
2021/06/26 11:24:13;;;;;;;4.40;4.00;;;;;;;30.55;38.33;98905.88;4990324;28;20439;-67
2021/06/26 11:26:46;;;;;;;5.47;3.88;;;;;;;30.50;39.16;98900.47;5001940;28;20034;-67